createdAt,value
2022-08-27T00:01:22.140Z,19.54
2022-08-27T00:03:50.125Z,19.53
2022-08-27T00:06:19.340Z,19.50
2022-08-27T00:08:48.175Z,19.49
2022-08-27T00:11:17.561Z,19.48
2022-08-27T00:13:45.273Z,19.48
2022-08-27T00:16:14.649Z,19.49
2022-08-27T00:18:42.722Z,19.48
2022-08-27T00:21:10.018Z,19.46
2022-08-27T00:23:37.134Z,19.44
2022-08-27T00:26:07.863Z,19.42
2022-08-27T00:28:35.136Z,19.41
2022-08-27T00:31:02.118Z,19.41
2022-08-27T00:33:30.594Z,19.42
2022-08-27T00:35:57.774Z,19.42
2022-08-27T00:38:25.343Z,19.40
2022-08-27T00:40:53.940Z,19.40
2022-08-27T00:43:25.776Z,19.40
2022-08-27T00:45:58.585Z,19.42
2022-08-27T00:48:30.087Z,19.42
2022-08-27T00:50:57.650Z,19.43
2022-08-27T00:53:29.655Z,19.45
2022-08-27T00:56:07.247Z,19.45
2022-08-27T00:58:47.484Z,19.46
2022-08-27T01:01:17.632Z,19.45
2022-08-27T01:03:47.951Z,19.44
2022-08-27T01:06:16.356Z,19.42
2022-08-27T01:09:02.975Z,19.42
2022-08-27T01:11:31.340Z,19.41
2022-08-27T01:14:00.690Z,19.40
2022-08-27T01:16:35.721Z,19.39
2022-08-27T01:19:08.135Z,19.37
2022-08-27T01:22:29.066Z,19.37
2022-08-27T01:25:00.178Z,19.39
2022-08-27T01:27:31.377Z,19.41
2022-08-27T01:29:58.543Z,19.42
2022-08-27T01:32:28.611Z,19.40
2022-08-27T01:34:56.888Z,19.39
2022-08-27T01:37:26.190Z,19.38
2022-08-27T01:39:55.919Z,19.37
2022-08-27T01:42:32.664Z,19.39
2022-08-27T01:45:21.932Z,19.37
2022-08-27T01:47:49.123Z,19.34
2022-08-27T01:50:31.915Z,19.34
2022-08-27T01:53:03.149Z,19.28
2022-08-27T01:55:30.511Z,19.24
2022-08-27T01:58:20.002Z,19.22
2022-08-27T02:00:56.440Z,19.19
2022-08-27T02:03:24.662Z,19.17
2022-08-27T02:05:52.251Z,19.17
2022-08-27T02:08:19.178Z,19.17
2022-08-27T02:10:48.017Z,19.14
2022-08-27T02:13:15.345Z,19.11
2022-08-27T02:15:44.049Z,19.10
2022-08-27T02:18:12.118Z,19.09
2022-08-27T02:20:39.520Z,19.07
2022-08-27T02:23:06.828Z,19.07
2022-08-27T02:25:34.071Z,19.05
2022-08-27T02:28:01.894Z,19.04
2022-08-27T02:30:32.103Z,19.02
2022-08-27T02:33:01.137Z,19.01
2022-08-27T02:35:29.361Z,19.01
2022-08-27T02:37:57.132Z,19.01
2022-08-27T02:40:25.487Z,19.04
2022-08-27T02:42:52.787Z,19.05
2022-08-27T02:45:20.453Z,19.05
2022-08-27T02:47:48.588Z,19.04
2022-08-27T02:50:16.474Z,19.03
2022-08-27T02:52:46.417Z,19.02
2022-08-27T02:55:14.509Z,18.99
2022-08-27T02:57:44.272Z,18.96
2022-08-27T03:00:14.861Z,18.94
2022-08-27T03:02:42.215Z,18.91
2022-08-27T03:05:09.982Z,18.87
2022-08-27T03:07:37.416Z,18.86
2022-08-27T03:10:07.422Z,18.83
2022-08-27T03:12:36.358Z,18.83
2022-08-27T03:15:07.546Z,18.81
2022-08-27T03:17:53.101Z,18.82
2022-08-27T03:20:20.372Z,18.82
2022-08-27T03:22:47.059Z,18.81
2022-08-27T03:25:16.221Z,18.82
2022-08-27T03:27:43.572Z,18.84
2022-08-27T03:30:15.634Z,18.86
2022-08-27T03:32:43.463Z,18.86
2022-08-27T03:35:11.718Z,18.86
2022-08-27T03:37:40.109Z,18.85
2022-08-27T03:40:08.343Z,18.86
2022-08-27T03:42:36.421Z,18.86
2022-08-27T03:45:04.016Z,18.87
2022-08-27T03:47:32.366Z,18.90
2022-08-27T03:50:02.196Z,18.89
2022-08-27T03:52:29.558Z,18.91
2022-08-27T03:54:58.426Z,18.90
2022-08-27T03:57:25.722Z,18.91
2022-08-27T03:59:54.448Z,18.91
2022-08-27T04:02:21.771Z,18.90
2022-08-27T04:04:51.636Z,18.89
2022-08-27T04:07:19.079Z,18.87
2022-08-27T04:09:46.587Z,18.84
2022-08-27T04:12:13.562Z,18.81
2022-08-27T04:14:40.536Z,18.78
2022-08-27T04:17:07.986Z,18.76
2022-08-27T04:19:35.223Z,18.75
2022-08-27T04:22:06.626Z,18.76
2022-08-27T04:24:35.411Z,18.76
2022-08-27T04:27:02.778Z,18.77
2022-08-27T04:29:30.097Z,18.77
2022-08-27T04:31:57.073Z,18.78
2022-08-27T04:34:24.554Z,18.81
2022-08-27T04:36:51.585Z,18.83
2022-08-27T04:39:20.699Z,18.84
2022-08-27T04:41:50.146Z,18.84
2022-08-27T04:44:17.131Z,18.84
2022-08-27T04:46:49.149Z,18.84
2022-08-27T04:49:17.911Z,18.82
2022-08-27T04:51:44.906Z,18.81
2022-08-27T04:54:13.020Z,18.84
2022-08-27T04:56:40.948Z,18.85
2022-08-27T04:59:10.463Z,18.86
2022-08-27T05:01:39.013Z,18.84
2022-08-27T05:04:06.357Z,18.83
2022-08-27T05:06:34.066Z,18.81
2022-08-27T05:09:00.996Z,18.78
2022-08-27T05:11:32.289Z,18.77
2022-08-27T05:13:59.522Z,18.75
2022-08-27T05:16:26.299Z,18.76
2022-08-27T05:18:53.544Z,18.75
2022-08-27T05:21:30.412Z,18.75
2022-08-27T05:23:58.857Z,18.72
2022-08-27T05:26:27.095Z,18.71
2022-08-27T05:28:58.853Z,18.70
2022-08-27T05:31:25.815Z,18.70
2022-08-27T05:33:56.017Z,18.71
2022-08-27T05:36:27.491Z,18.71
2022-08-27T05:38:56.263Z,18.72
2022-08-27T05:41:31.744Z,18.73
2022-08-27T05:44:36.773Z,18.74
2022-08-27T05:46:54.832Z,18.79
2022-08-27T05:49:22.145Z,18.80
2022-08-27T05:51:49.411Z,18.84
2022-08-27T05:54:19.778Z,18.87
2022-08-27T05:56:47.922Z,18.90
2022-08-27T05:59:34.627Z,18.89
2022-08-27T06:02:02.526Z,18.89
2022-08-27T06:04:30.101Z,18.89
2022-08-27T06:06:57.408Z,18.87
2022-08-27T06:09:29.391Z,18.87
2022-08-27T06:11:58.673Z,18.84
2022-08-27T06:14:26.471Z,18.87
2022-08-27T06:16:53.516Z,18.91
2022-08-27T06:19:21.899Z,18.92
2022-08-27T06:22:00.708Z,18.94
2022-08-27T06:24:36.648Z,18.98
2022-08-27T06:27:05.587Z,19.00
2022-08-27T06:29:36.391Z,19.02
2022-08-27T06:32:05.563Z,19.07
2022-08-27T06:34:33.761Z,19.09
2022-08-27T06:37:01.242Z,19.11
2022-08-27T06:39:29.112Z,19.13
2022-08-27T06:41:58.942Z,19.13
2022-08-27T06:44:26.174Z,19.16
2022-08-27T06:46:52.841Z,19.16
2022-08-27T06:49:19.830Z,19.18
2022-08-27T06:51:47.853Z,19.20
2022-08-27T06:54:16.168Z,19.25
2022-08-27T06:56:44.622Z,19.28
2022-08-27T06:59:14.941Z,19.29
2022-08-27T07:01:44.680Z,19.35
2022-08-27T07:04:16.935Z,19.37
2022-08-27T07:06:44.063Z,19.35
2022-08-27T07:09:11.393Z,19.35
2022-08-27T07:11:39.132Z,19.38
2022-08-27T07:14:06.957Z,19.41
2022-08-27T07:16:34.726Z,19.47
2022-08-27T07:19:03.822Z,19.52
2022-08-27T07:21:32.223Z,19.58
2022-08-27T07:24:03.698Z,19.64
2022-08-27T07:26:32.405Z,19.68
2022-08-27T07:28:59.373Z,19.72
2022-08-27T07:31:28.191Z,19.76
2022-08-27T07:33:55.330Z,19.84
2022-08-27T07:36:23.375Z,19.89
2022-08-27T07:38:59.101Z,19.93
2022-08-27T07:41:32.347Z,20.02
2022-08-27T07:44:21.131Z,20.12
2022-08-27T07:46:55.513Z,20.19
2022-08-27T07:49:23.707Z,20.22
2022-08-27T07:51:51.936Z,20.24
2022-08-27T07:54:21.495Z,20.30
2022-08-27T07:56:55.003Z,20.42
2022-08-27T07:59:27.269Z,20.52
2022-08-27T08:01:56.053Z,20.60
2022-08-27T08:04:23.820Z,20.68
2022-08-27T08:06:51.944Z,20.72
2022-08-27T08:09:19.853Z,20.71
2022-08-27T08:11:48.336Z,20.64
2022-08-27T08:14:15.452Z,20.67
2022-08-27T08:16:42.700Z,20.69
2022-08-27T08:19:09.986Z,20.73
2022-08-27T08:21:38.575Z,20.76
2022-08-27T08:24:06.016Z,20.82
2022-08-27T08:26:33.804Z,20.86
2022-08-27T08:29:04.640Z,20.75
2022-08-27T08:31:32.310Z,20.60
2022-08-27T08:33:59.891Z,20.49
2022-08-27T08:36:27.208Z,20.47
2022-08-27T08:38:54.649Z,20.43
2022-08-27T08:41:34.115Z,20.37
2022-08-27T08:44:08.722Z,20.26
2022-08-27T08:46:45.407Z,20.20
2022-08-27T08:49:30.774Z,20.17
2022-08-27T08:52:30.495Z,20.09
2022-08-27T08:55:25.347Z,20.03
2022-08-27T08:58:12.602Z,20.07
2022-08-27T09:00:44.674Z,20.10
2022-08-27T09:03:16.475Z,20.09
2022-08-27T09:05:53.606Z,20.09
2022-08-27T09:08:35.657Z,20.06
2022-08-27T09:11:37.926Z,20.01
2022-08-27T09:14:36.054Z,20.02
2022-08-27T09:17:10.663Z,20.02
2022-08-27T09:19:39.129Z,20.00
2022-08-27T09:22:36.749Z,20.02
2022-08-27T09:25:20.953Z,20.03
2022-08-27T09:27:49.651Z,20.05
2022-08-27T09:30:25.562Z,20.12
2022-08-27T09:33:01.578Z,20.23
2022-08-27T09:35:34.489Z,20.32
2022-08-27T09:38:02.573Z,20.36
2022-08-27T09:40:41.530Z,20.44
2022-08-27T09:43:29.273Z,20.55
2022-08-27T09:46:00.042Z,20.61
2022-08-27T09:48:32.770Z,20.68
2022-08-27T09:51:22.126Z,20.79
2022-08-27T09:53:54.016Z,20.87
2022-08-27T09:56:29.353Z,21.00
2022-08-27T09:59:10.759Z,21.07
2022-08-27T10:01:52.131Z,21.06
2022-08-27T10:04:27.077Z,21.13
2022-08-27T10:06:54.704Z,21.30
2022-08-27T10:09:35.455Z,21.50
2022-08-27T10:12:18.364Z,21.63
2022-08-27T10:14:51.315Z,21.66
2022-08-27T10:17:44.832Z,21.81
2022-08-27T10:20:31.632Z,21.88
2022-08-27T10:23:12.492Z,21.91
2022-08-27T10:25:59.212Z,21.91
2022-08-27T10:28:34.237Z,22.09
2022-08-27T10:31:23.740Z,22.13
2022-08-27T10:34:00.108Z,22.22
2022-08-27T10:36:59.131Z,22.36
2022-08-27T10:39:41.593Z,22.50
2022-08-27T10:42:35.615Z,22.63
2022-08-27T10:45:11.266Z,22.62
2022-08-27T10:48:04.892Z,22.58
2022-08-27T10:50:44.477Z,22.58
2022-08-27T10:53:17.102Z,22.63
2022-08-27T10:55:52.329Z,22.66
2022-08-27T10:58:49.674Z,22.72
2022-08-27T11:01:37.917Z,22.80
2022-08-27T11:04:18.589Z,22.74
2022-08-27T11:07:07.305Z,22.68
2022-08-27T11:09:57.386Z,22.70
2022-08-27T11:12:37.127Z,22.88
2022-08-27T11:15:19.237Z,23.23
2022-08-27T11:17:53.450Z,23.51
2022-08-27T11:20:28.573Z,23.74
2022-08-27T11:23:08.285Z,23.95
2022-08-27T11:25:55.704Z,24.20
2022-08-27T11:28:38.428Z,24.38
2022-08-27T11:31:25.592Z,24.64
2022-08-27T11:34:07.938Z,24.91
2022-08-27T11:37:08.631Z,25.11
2022-08-27T11:39:56.739Z,25.25
2022-08-27T11:42:36.270Z,25.41
2022-08-27T11:45:30.820Z,25.67
2022-08-27T11:48:00.122Z,25.75
2022-08-27T11:50:30.901Z,25.76
2022-08-27T11:53:06.845Z,25.91
2022-08-27T11:55:39.284Z,26.06
2022-08-27T11:58:09.419Z,26.14
2022-08-27T12:00:41.853Z,26.39
2022-08-27T12:03:23.629Z,26.61
2022-08-27T12:06:10.021Z,26.68
2022-08-27T12:08:38.278Z,26.64
2022-08-27T12:11:20.185Z,26.60
2022-08-27T12:14:12.548Z,26.56
2022-08-27T12:16:54.110Z,26.51
2022-08-27T12:19:49.400Z,26.43
2022-08-27T12:22:55.473Z,26.40
2022-08-27T12:25:22.829Z,26.25
2022-08-27T12:28:00.388Z,26.08
2022-08-27T12:30:33.131Z,25.87
2022-08-27T12:33:10.207Z,25.65
2022-08-27T12:35:53.748Z,25.50
2022-08-27T12:38:32.478Z,25.25
2022-08-27T12:41:06.326Z,24.97
2022-08-27T12:43:38.157Z,24.76
2022-08-27T12:46:14.160Z,24.67
2022-08-27T12:48:45.740Z,24.54
2022-08-27T12:51:24.457Z,24.42
2022-08-27T12:54:13.057Z,24.34
2022-08-27T12:56:49.883Z,24.23
2022-08-27T12:59:38.475Z,24.18
2022-08-27T13:02:36.017Z,24.14
2022-08-27T13:05:10.103Z,23.99
2022-08-27T13:07:47.078Z,23.96
2022-08-27T13:10:18.809Z,23.93
2022-08-27T13:12:48.704Z,23.94
2022-08-27T13:15:19.521Z,23.98
2022-08-27T13:17:47.588Z,24.06
2022-08-27T13:20:26.437Z,24.10
2022-08-27T13:22:54.375Z,24.09
2022-08-27T13:25:30.202Z,24.04
2022-08-27T13:28:10.419Z,23.97
2022-08-27T13:30:44.050Z,23.94
2022-08-27T13:33:22.606Z,23.93
2022-08-27T13:35:52.608Z,23.88
2022-08-27T13:38:22.403Z,23.87
2022-08-27T13:41:00.055Z,23.85
2022-08-27T13:43:39.659Z,23.78
2022-08-27T13:46:17.833Z,23.72
2022-08-27T13:48:47.278Z,23.64
2022-08-27T13:51:14.994Z,23.55
2022-08-27T13:56:50.357Z,23.42
2022-08-27T13:59:20.214Z,23.41
2022-08-27T14:02:10.410Z,23.27
2022-08-27T14:04:47.584Z,23.23
2022-08-27T14:07:20.916Z,23.30
2022-08-27T14:10:02.203Z,23.27
2022-08-27T14:12:41.507Z,23.34
2022-08-27T14:15:40.107Z,23.46
2022-08-27T14:18:42.253Z,23.60
2022-08-27T14:21:12.256Z,23.69
2022-08-27T14:23:42.275Z,23.69
2022-08-27T14:26:13.188Z,23.74
2022-08-27T14:28:40.905Z,23.77
2022-08-27T14:31:08.910Z,23.80
2022-08-27T14:33:37.179Z,23.74
2022-08-27T14:36:10.811Z,23.63
2022-08-27T14:38:42.760Z,23.55
2022-08-27T14:41:12.884Z,23.47
2022-08-27T14:43:42.946Z,23.48
2022-08-27T14:46:27.744Z,23.45
2022-08-27T14:48:58.069Z,23.38
2022-08-27T14:51:31.431Z,23.26
2022-08-27T14:54:04.275Z,23.26
2022-08-27T14:56:32.507Z,23.28
2022-08-27T14:59:00.002Z,23.23
2022-08-27T15:01:27.378Z,23.21
2022-08-27T15:03:56.235Z,23.09
2022-08-27T15:06:23.837Z,22.97
2022-08-27T15:08:52.481Z,22.90
2022-08-27T15:11:23.951Z,22.85
2022-08-27T15:13:56.416Z,22.75
2022-08-27T15:16:32.132Z,22.71
2022-08-27T15:19:01.195Z,22.61
2022-08-27T15:21:30.522Z,22.55
2022-08-27T15:24:09.857Z,22.51
2022-08-27T15:26:37.075Z,22.47
2022-08-27T15:29:07.073Z,22.42
2022-08-27T15:31:37.467Z,22.34
2022-08-27T15:34:04.707Z,22.34
2022-08-27T15:36:39.191Z,22.34
2022-08-27T15:39:07.460Z,22.34
2022-08-27T15:42:05.412Z,22.38
2022-08-27T15:44:51.268Z,22.31
2022-08-27T15:47:22.403Z,22.28
2022-08-27T15:49:53.900Z,22.34
2022-08-27T15:52:22.935Z,22.45
2022-08-27T15:54:51.019Z,22.55
2022-08-27T15:57:20.525Z,22.64
2022-08-27T15:59:47.950Z,22.67
2022-08-27T16:02:19.538Z,22.58
2022-08-27T16:04:47.745Z,22.50
2022-08-27T16:07:17.777Z,22.40
2022-08-27T16:09:48.744Z,22.35
2022-08-27T16:12:27.016Z,22.28
2022-08-27T16:14:57.483Z,22.11
2022-08-27T16:17:26.501Z,22.01
2022-08-27T16:19:53.641Z,21.88
2022-08-27T16:22:24.732Z,21.83
2022-08-27T16:24:51.519Z,21.81
2022-08-27T16:27:20.744Z,21.80
2022-08-27T16:29:47.511Z,21.74
2022-08-27T16:32:17.296Z,21.66
2022-08-27T16:34:52.546Z,21.58
2022-08-27T16:37:23.014Z,21.57
2022-08-27T16:39:50.438Z,21.57
2022-08-27T16:42:18.290Z,21.57
2022-08-27T16:44:46.122Z,21.63
2022-08-27T16:47:13.144Z,21.65
2022-08-27T16:49:58.273Z,21.66
2022-08-27T16:52:25.538Z,21.64
2022-08-27T16:54:53.288Z,21.64
2022-08-27T16:57:20.408Z,21.67
2022-08-27T16:59:50.256Z,21.67
2022-08-27T17:02:30.413Z,21.68
2022-08-27T17:05:07.393Z,21.74
2022-08-27T17:07:51.410Z,21.77
2022-08-27T17:10:22.031Z,21.83
2022-08-27T17:12:49.382Z,21.86
2022-08-27T17:15:17.471Z,21.92
2022-08-27T17:17:44.914Z,22.02
2022-08-27T17:20:15.343Z,22.10
2022-08-27T17:22:44.954Z,22.15
2022-08-27T17:25:12.529Z,22.22
2022-08-27T17:27:40.363Z,22.24
2022-08-27T17:30:08.185Z,22.26
2022-08-27T17:32:40.006Z,22.27
2022-08-27T17:35:10.702Z,22.22
2022-08-27T17:37:41.926Z,22.15
2022-08-27T17:40:11.241Z,22.07
2022-08-27T17:42:40.979Z,22.02
2022-08-27T17:45:12.122Z,21.96
2022-08-27T17:47:40.995Z,21.92
2022-08-27T17:50:09.436Z,21.88
2022-08-27T17:52:47.810Z,21.83
2022-08-27T17:55:25.444Z,21.74
2022-08-27T17:57:52.343Z,21.63
2022-08-27T18:00:19.934Z,21.56
2022-08-27T18:02:50.327Z,21.47
2022-08-27T18:05:34.339Z,21.43
2022-08-27T18:08:04.462Z,21.39
2022-08-27T18:10:33.880Z,21.34
2022-08-27T18:13:01.399Z,21.38
2022-08-27T18:15:34.005Z,21.37
2022-08-27T18:18:03.596Z,21.31
2022-08-27T18:20:36.040Z,21.18
2022-08-27T18:23:07.797Z,21.13
2022-08-27T18:25:39.304Z,21.04
2022-08-27T18:28:11.093Z,20.96
2022-08-27T18:30:42.242Z,20.87
2022-08-27T18:33:11.584Z,20.78
2022-08-27T18:35:39.401Z,20.73
2022-08-27T18:38:09.905Z,20.69
2022-08-27T18:40:46.656Z,20.65
2022-08-27T18:43:20.512Z,20.60
2022-08-27T18:45:55.468Z,20.54
2022-08-27T18:48:25.427Z,20.47
2022-08-27T18:51:00.150Z,20.38
2022-08-27T18:53:38.540Z,20.33
2022-08-27T18:56:16.626Z,20.24
2022-08-27T18:58:44.504Z,20.18
2022-08-27T19:01:16.164Z,20.13
2022-08-27T19:03:50.415Z,20.07
2022-08-27T19:06:20.452Z,20.04
2022-08-27T19:08:53.953Z,19.99
2022-08-27T19:11:21.069Z,19.92
2022-08-27T19:13:50.587Z,19.84
2022-08-27T19:16:24.862Z,19.77
2022-08-27T19:18:51.817Z,19.68
2022-08-27T19:21:18.539Z,19.61
2022-08-27T19:23:45.601Z,19.55
2022-08-27T19:26:18.345Z,19.54
2022-08-27T19:28:45.690Z,19.51
2022-08-27T19:31:13.973Z,19.49
2022-08-27T19:33:41.211Z,19.49
2022-08-27T19:36:15.022Z,19.48
2022-08-27T19:38:49.475Z,19.51
2022-08-27T19:43:48.599Z,19.51
2022-08-27T19:46:27.064Z,19.48
2022-08-27T19:49:07.355Z,19.46
2022-08-27T19:51:34.777Z,19.47
2022-08-27T19:54:02.166Z,19.45
2022-08-27T19:56:29.236Z,19.41
2022-08-27T19:59:08.723Z,19.37
2022-08-27T20:01:43.844Z,19.33
2022-08-27T20:04:11.482Z,19.29
2022-08-27T20:06:38.195Z,19.26
2022-08-27T20:09:11.159Z,19.24
2022-08-27T20:11:38.358Z,19.23
2022-08-27T20:14:05.588Z,19.20
2022-08-27T20:16:37.417Z,19.19
2022-08-27T20:19:05.599Z,19.15
2022-08-27T20:21:32.587Z,19.10
2022-08-27T20:23:59.385Z,19.04
2022-08-27T20:26:26.633Z,19.00
2022-08-27T20:28:54.517Z,18.95
2022-08-27T20:31:21.662Z,18.90
2022-08-27T20:33:48.964Z,18.85
2022-08-27T20:36:16.087Z,18.77
2022-08-27T20:38:43.099Z,18.72
2022-08-27T20:41:10.170Z,18.70
2022-08-27T20:43:37.104Z,18.68
2022-08-27T20:46:06.360Z,18.67
2022-08-27T20:48:37.456Z,18.63
2022-08-27T20:51:07.779Z,18.58
2022-08-27T20:53:34.853Z,18.53
2022-08-27T20:56:01.770Z,18.46
2022-08-27T20:58:46.924Z,18.33
2022-08-27T21:01:14.032Z,18.24
2022-08-27T21:03:41.142Z,18.16
2022-08-27T21:06:08.529Z,18.06
2022-08-27T21:08:39.178Z,17.94
2022-08-27T21:11:11.899Z,17.83
2022-08-27T21:13:54.920Z,17.72
2022-08-27T21:16:23.738Z,17.59
2022-08-27T21:18:50.932Z,17.52
2022-08-27T21:21:18.350Z,17.43
2022-08-27T21:23:45.243Z,17.35
2022-08-27T21:26:13.583Z,17.27
2022-08-27T21:28:42.899Z,17.20
2022-08-27T21:31:10.570Z,17.13
2022-08-27T21:33:39.685Z,17.07
2022-08-27T21:36:12.157Z,17.03
2022-08-27T21:38:39.763Z,16.98
2022-08-27T21:41:10.202Z,16.94
2022-08-27T21:43:37.724Z,16.88
2022-08-27T21:46:07.972Z,16.84
2022-08-27T21:48:39.478Z,16.78
2022-08-27T21:51:11.107Z,16.70
2022-08-27T21:53:38.221Z,16.65
2022-08-27T21:56:09.617Z,16.60
2022-08-27T21:58:36.678Z,16.55
2022-08-27T22:01:09.892Z,16.51
2022-08-27T22:03:36.987Z,16.45
2022-08-27T22:06:07.429Z,16.40
2022-08-27T22:08:34.711Z,16.35
2022-08-27T22:11:01.781Z,16.31
2022-08-27T22:13:29.103Z,16.27
2022-08-27T22:15:57.120Z,16.22
2022-08-27T22:18:24.073Z,16.19
2022-08-27T22:20:51.453Z,16.16
2022-08-27T22:23:19.394Z,16.11
2022-08-27T22:25:46.681Z,16.05
2022-08-27T22:28:14.420Z,16.01
2022-08-27T22:30:41.992Z,15.99
2022-08-27T22:33:09.133Z,15.96
2022-08-27T22:35:36.244Z,15.93
2022-08-27T22:38:03.360Z,15.92
2022-08-27T22:40:32.681Z,15.89
2022-08-27T22:43:00.432Z,15.89
2022-08-27T22:45:28.841Z,15.88
2022-08-27T22:47:56.570Z,15.87
2022-08-27T22:50:23.916Z,15.86
2022-08-27T22:52:51.546Z,15.84
2022-08-27T22:55:22.065Z,15.83
2022-08-27T22:57:51.333Z,15.80
2022-08-27T23:00:29.153Z,15.77
2022-08-27T23:02:56.210Z,15.75
2022-08-27T23:05:24.499Z,15.74
2022-08-27T23:07:54.880Z,15.71
2022-08-27T23:10:24.299Z,15.66
2022-08-27T23:12:54.107Z,15.64
2022-08-27T23:15:26.509Z,15.62
2022-08-27T23:17:53.942Z,15.62
2022-08-27T23:20:22.086Z,15.59
2022-08-27T23:22:50.379Z,15.57
2022-08-27T23:25:36.694Z,15.59
2022-08-27T23:28:06.542Z,15.58
2022-08-27T23:30:34.982Z,15.56
2022-08-27T23:33:02.035Z,15.55
2022-08-27T23:35:29.314Z,15.53
2022-08-27T23:37:56.345Z,15.51
2022-08-27T23:40:23.676Z,15.49
2022-08-27T23:42:50.572Z,15.44
2022-08-27T23:45:22.139Z,15.42
2022-08-27T23:47:49.343Z,15.40
2022-08-27T23:50:17.272Z,15.38
2022-08-27T23:52:44.276Z,15.40
2022-08-27T23:55:14.879Z,15.42
2022-08-27T23:57:41.678Z,15.45
